sensor_id;sensor_type;location;lat;lon;timestamp;P1;durP1;ratioP1;P2;durP2;ratioP2
33254;SDS011;19623;52.482;9.762;2022-08-21T00:01:14;2.78;;;1.60;;
33254;SDS011;19623;52.482;9.762;2022-08-21T00:03:43;7.07;;;1.77;;
33254;SDS011;19623;52.482;9.762;2022-08-21T00:06:09;5.63;;;1.80;;
33254;SDS011;19623;52.482;9.762;2022-08-21T00:08:35;7.82;;;1.88;;
33254;SDS011;19623;52.482;9.762;2022-08-21T00:11:01;4.78;;;1.52;;
33254;SDS011;19623;52.482;9.762;2022-08-21T00:13:26;6.95;;;1.83;;
33254;SDS011;19623;52.482;9.762;2022-08-21T00:15:52;8.57;;;1.50;;
33254;SDS011;19623;52.482;9.762;2022-08-21T00:18:18;5.78;;;1.80;;
33254;SDS011;19623;52.482;9.762;2022-08-21T00:20:45;5.82;;;2.28;;
33254;SDS011;19623;52.482;9.762;2022-08-21T00:23:11;2.88;;;1.50;;
33254;SDS011;19623;52.482;9.762;2022-08-21T00:25:38;2.90;;;1.35;;
33254;SDS011;19623;52.482;9.762;2022-08-21T00:28:04;4.30;;;2.03;;
33254;SDS011;19623;52.482;9.762;2022-08-21T00:30:31;4.13;;;1.60;;
33254;SDS011;19623;52.482;9.762;2022-08-21T00:32:57;3.65;;;1.63;;
33254;SDS011;19623;52.482;9.762;2022-08-21T00:35:28;6.28;;;1.70;;
33254;SDS011;19623;52.482;9.762;2022-08-21T00:37:57;4.05;;;1.55;;
33254;SDS011;19623;52.482;9.762;2022-08-21T00:43:19;5.47;;;1.48;;
33254;SDS011;19623;52.482;9.762;2022-08-21T00:45:47;8.15;;;2.00;;
33254;SDS011;19623;52.482;9.762;2022-08-21T00:48:13;5.20;;;1.75;;
33254;SDS011;19623;52.482;9.762;2022-08-21T00:50:50;2.20;;;1.40;;
33254;SDS011;19623;52.482;9.762;2022-08-21T00:53:27;6.45;;;2.13;;
33254;SDS011;19623;52.482;9.762;2022-08-21T00:55:55;2.88;;;1.60;;
33254;SDS011;19623;52.482;9.762;2022-08-21T00:58:22;7.20;;;1.73;;
33254;SDS011;19623;52.482;9.762;2022-08-21T01:00:49;5.10;;;1.80;;
33254;SDS011;19623;52.482;9.762;2022-08-21T01:03:17;4.07;;;1.70;;
33254;SDS011;19623;52.482;9.762;2022-08-21T01:05:44;6.22;;;1.80;;
33254;SDS011;19623;52.482;9.762;2022-08-21T01:08:11;5.03;;;1.60;;
33254;SDS011;19623;52.482;9.762;2022-08-21T01:10:38;5.88;;;1.90;;
33254;SDS011;19623;52.482;9.762;2022-08-21T01:13:05;5.68;;;1.70;;
33254;SDS011;19623;52.482;9.762;2022-08-21T01:15:39;12.10;;;9.80;;
33254;SDS011;19623;52.482;9.762;2022-08-21T01:18:08;4.30;;;2.05;;
33254;SDS011;19623;52.482;9.762;2022-08-21T01:20:36;3.40;;;1.75;;
33254;SDS011;19623;52.482;9.762;2022-08-21T01:23:04;3.55;;;1.52;;
33254;SDS011;19623;52.482;9.762;2022-08-21T01:25:31;4.97;;;1.85;;
33254;SDS011;19623;52.482;9.762;2022-08-21T01:27:58;5.18;;;1.90;;
33254;SDS011;19623;52.482;9.762;2022-08-21T01:30:30;2.90;;;1.70;;
33254;SDS011;19623;52.482;9.762;2022-08-21T01:32:59;5.20;;;2.08;;
33254;SDS011;19623;52.482;9.762;2022-08-21T01:35:25;4.57;;;1.77;;
33254;SDS011;19623;52.482;9.762;2022-08-21T01:37:51;3.35;;;2.28;;
33254;SDS011;19623;52.482;9.762;2022-08-21T01:40:17;4.35;;;1.83;;
33254;SDS011;19623;52.482;9.762;2022-08-21T01:42:43;2.50;;;1.50;;
33254;SDS011;19623;52.482;9.762;2022-08-21T01:45:10;7.53;;;2.13;;
33254;SDS011;19623;52.482;9.762;2022-08-21T01:47:37;3.92;;;1.90;;
33254;SDS011;19623;52.482;9.762;2022-08-21T01:50:05;4.57;;;1.50;;
33254;SDS011;19623;52.482;9.762;2022-08-21T01:52:32;5.68;;;2.15;;
33254;SDS011;19623;52.482;9.762;2022-08-21T01:54:58;5.35;;;2.38;;
33254;SDS011;19623;52.482;9.762;2022-08-21T01:57:23;3.67;;;1.70;;
33254;SDS011;19623;52.482;9.762;2022-08-21T01:59:50;4.22;;;1.95;;
33254;SDS011;19623;52.482;9.762;2022-08-21T02:02:15;4.60;;;1.85;;
33254;SDS011;19623;52.482;9.762;2022-08-21T02:04:41;3.85;;;1.80;;
33254;SDS011;19623;52.482;9.762;2022-08-21T02:07:06;2.90;;;1.55;;
33254;SDS011;19623;52.482;9.762;2022-08-21T02:09:32;4.15;;;1.80;;
33254;SDS011;19623;52.482;9.762;2022-08-21T02:11:58;3.40;;;1.70;;
33254;SDS011;19623;52.482;9.762;2022-08-21T02:14:24;3.97;;;1.85;;
33254;SDS011;19623;52.482;9.762;2022-08-21T02:16:50;5.97;;;1.95;;
33254;SDS011;19623;52.482;9.762;2022-08-21T02:19:15;3.10;;;1.80;;
33254;SDS011;19623;52.482;9.762;2022-08-21T02:21:41;4.38;;;2.00;;
33254;SDS011;19623;52.482;9.762;2022-08-21T02:24:07;4.85;;;1.88;;
33254;SDS011;19623;52.482;9.762;2022-08-21T02:26:33;5.15;;;1.92;;
33254;SDS011;19623;52.482;9.762;2022-08-21T02:28:59;4.13;;;1.55;;
33254;SDS011;19623;52.482;9.762;2022-08-21T02:31:25;4.45;;;1.65;;
33254;SDS011;19623;52.482;9.762;2022-08-21T02:33:51;4.53;;;1.65;;
33254;SDS011;19623;52.482;9.762;2022-08-21T02:36:17;4.70;;;1.38;;
33254;SDS011;19623;52.482;9.762;2022-08-21T02:38:42;4.50;;;2.05;;
33254;SDS011;19623;52.482;9.762;2022-08-21T02:41:12;2.92;;;1.75;;
33254;SDS011;19623;52.482;9.762;2022-08-21T02:43:39;3.60;;;1.83;;
33254;SDS011;19623;52.482;9.762;2022-08-21T02:46:06;2.20;;;1.80;;
33254;SDS011;19623;52.482;9.762;2022-08-21T02:48:34;1.55;;;1.38;;
33254;SDS011;19623;52.482;9.762;2022-08-21T02:51:01;3.35;;;1.70;;
33254;SDS011;19623;52.482;9.762;2022-08-21T02:53:32;4.88;;;2.00;;
33254;SDS011;19623;52.482;9.762;2022-08-21T02:56:00;1.80;;;1.63;;
33254;SDS011;19623;52.482;9.762;2022-08-21T02:58:31;4.15;;;1.50;;
33254;SDS011;19623;52.482;9.762;2022-08-21T03:00:59;4.20;;;1.83;;
33254;SDS011;19623;52.482;9.762;2022-08-21T03:03:25;2.08;;;1.35;;
33254;SDS011;19623;52.482;9.762;2022-08-21T03:05:53;5.32;;;2.03;;
33254;SDS011;19623;52.482;9.762;2022-08-21T03:08:19;3.05;;;1.60;;
33254;SDS011;19623;52.482;9.762;2022-08-21T03:10:47;4.05;;;1.85;;
33254;SDS011;19623;52.482;9.762;2022-08-21T03:13:15;1.92;;;1.23;;
33254;SDS011;19623;52.482;9.762;2022-08-21T03:15:42;4.47;;;2.03;;
33254;SDS011;19623;52.482;9.762;2022-08-21T03:18:09;3.50;;;1.60;;
33254;SDS011;19623;52.482;9.762;2022-08-21T03:20:36;4.05;;;1.55;;
33254;SDS011;19623;52.482;9.762;2022-08-21T03:23:04;2.65;;;1.40;;
33254;SDS011;19623;52.482;9.762;2022-08-21T03:25:31;3.17;;;1.40;;
33254;SDS011;19623;52.482;9.762;2022-08-21T03:27:59;3.47;;;1.27;;
33254;SDS011;19623;52.482;9.762;2022-08-21T03:30:25;4.00;;;1.67;;
33254;SDS011;19623;52.482;9.762;2022-08-21T03:32:52;7.13;;;1.83;;
33254;SDS011;19623;52.482;9.762;2022-08-21T03:35:18;4.68;;;1.70;;
33254;SDS011;19623;52.482;9.762;2022-08-21T03:37:44;2.38;;;1.50;;
33254;SDS011;19623;52.482;9.762;2022-08-21T03:40:11;7.15;;;2.25;;
33254;SDS011;19623;52.482;9.762;2022-08-21T03:42:39;2.65;;;1.70;;
33254;SDS011;19623;52.482;9.762;2022-08-21T03:45:05;3.42;;;1.52;;
33254;SDS011;19623;52.482;9.762;2022-08-21T03:47:31;3.40;;;1.67;;
33254;SDS011;19623;52.482;9.762;2022-08-21T03:49:57;2.15;;;1.73;;
33254;SDS011;19623;52.482;9.762;2022-08-21T03:52:22;3.35;;;1.45;;
33254;SDS011;19623;52.482;9.762;2022-08-21T03:54:48;4.45;;;1.50;;
33254;SDS011;19623;52.482;9.762;2022-08-21T03:57:15;4.13;;;1.60;;
33254;SDS011;19623;52.482;9.762;2022-08-21T03:59:41;3.38;;;1.60;;
33254;SDS011;19623;52.482;9.762;2022-08-21T04:02:08;4.30;;;1.65;;
33254;SDS011;19623;52.482;9.762;2022-08-21T04:04:35;2.85;;;1.48;;
33254;SDS011;19623;52.482;9.762;2022-08-21T04:07:01;5.60;;;1.70;;
33254;SDS011;19623;52.482;9.762;2022-08-21T04:09:28;3.25;;;1.75;;
33254;SDS011;19623;52.482;9.762;2022-08-21T04:11:55;4.78;;;1.67;;
33254;SDS011;19623;52.482;9.762;2022-08-21T04:14:21;3.47;;;1.80;;
33254;SDS011;19623;52.482;9.762;2022-08-21T04:16:47;7.43;;;2.10;;
33254;SDS011;19623;52.482;9.762;2022-08-21T04:19:13;8.15;;;2.00;;
33254;SDS011;19623;52.482;9.762;2022-08-21T04:21:39;6.15;;;2.00;;
33254;SDS011;19623;52.482;9.762;2022-08-21T04:24:06;3.70;;;1.75;;
33254;SDS011;19623;52.482;9.762;2022-08-21T04:26:33;5.05;;;2.20;;
33254;SDS011;19623;52.482;9.762;2022-08-21T04:28:59;5.50;;;2.20;;
33254;SDS011;19623;52.482;9.762;2022-08-21T04:31:27;3.28;;;1.90;;
33254;SDS011;19623;52.482;9.762;2022-08-21T04:33:53;3.90;;;1.77;;
33254;SDS011;19623;52.482;9.762;2022-08-21T04:36:19;4.78;;;2.00;;
33254;SDS011;19623;52.482;9.762;2022-08-21T04:38:45;4.65;;;2.20;;
33254;SDS011;19623;52.482;9.762;2022-08-21T04:41:11;4.20;;;2.15;;
33254;SDS011;19623;52.482;9.762;2022-08-21T04:43:37;3.38;;;2.40;;
33254;SDS011;19623;52.482;9.762;2022-08-21T04:46:03;4.72;;;1.98;;
33254;SDS011;19623;52.482;9.762;2022-08-21T04:48:30;3.17;;;2.00;;
33254;SDS011;19623;52.482;9.762;2022-08-21T04:53:50;4.68;;;1.92;;
33254;SDS011;19623;52.482;9.762;2022-08-21T04:56:30;7.80;;;2.25;;
33254;SDS011;19623;52.482;9.762;2022-08-21T04:59:00;2.92;;;2.28;;
33254;SDS011;19623;52.482;9.762;2022-08-21T05:01:29;5.72;;;2.30;;
33254;SDS011;19623;52.482;9.762;2022-08-21T05:03:59;5.95;;;2.53;;
33254;SDS011;19623;52.482;9.762;2022-08-21T05:06:28;7.72;;;2.80;;
33254;SDS011;19623;52.482;9.762;2022-08-21T05:08:56;5.47;;;2.30;;
33254;SDS011;19623;52.482;9.762;2022-08-21T05:11:22;4.93;;;2.20;;
33254;SDS011;19623;52.482;9.762;2022-08-21T05:13:49;5.13;;;2.40;;
33254;SDS011;19623;52.482;9.762;2022-08-21T05:16:15;4.47;;;2.47;;
33254;SDS011;19623;52.482;9.762;2022-08-21T05:18:41;4.32;;;2.28;;
33254;SDS011;19623;52.482;9.762;2022-08-21T05:21:06;4.03;;;2.00;;
33254;SDS011;19623;52.482;9.762;2022-08-21T05:23:32;4.53;;;2.10;;
33254;SDS011;19623;52.482;9.762;2022-08-21T05:25:58;7.38;;;2.38;;
33254;SDS011;19623;52.482;9.762;2022-08-21T05:28:24;6.65;;;2.20;;
33254;SDS011;19623;52.482;9.762;2022-08-21T05:30:50;5.20;;;2.58;;
33254;SDS011;19623;52.482;9.762;2022-08-21T05:33:16;8.43;;;2.55;;
33254;SDS011;19623;52.482;9.762;2022-08-21T05:35:41;7.75;;;2.80;;
33254;SDS011;19623;52.482;9.762;2022-08-21T05:38:07;5.65;;;2.35;;
33254;SDS011;19623;52.482;9.762;2022-08-21T05:40:35;4.57;;;2.55;;
33254;SDS011;19623;52.482;9.762;2022-08-21T05:43:00;7.22;;;2.97;;
33254;SDS011;19623;52.482;9.762;2022-08-21T05:45:28;6.80;;;2.83;;
33254;SDS011;19623;52.482;9.762;2022-08-21T05:47:56;7.63;;;2.70;;
33254;SDS011;19623;52.482;9.762;2022-08-21T05:50:22;12.13;;;3.25;;
33254;SDS011;19623;52.482;9.762;2022-08-21T05:52:47;4.20;;;2.60;;
33254;SDS011;19623;52.482;9.762;2022-08-21T05:55:13;6.53;;;2.35;;
33254;SDS011;19623;52.482;9.762;2022-08-21T05:57:39;10.18;;;2.65;;
33254;SDS011;19623;52.482;9.762;2022-08-21T06:00:06;8.05;;;2.55;;
33254;SDS011;19623;52.482;9.762;2022-08-21T06:02:34;11.32;;;2.40;;
33254;SDS011;19623;52.482;9.762;2022-08-21T06:05:00;3.72;;;2.30;;
33254;SDS011;19623;52.482;9.762;2022-08-21T06:07:26;4.38;;;2.40;;
33254;SDS011;19623;52.482;9.762;2022-08-21T06:09:52;4.15;;;2.42;;
33254;SDS011;19623;52.482;9.762;2022-08-21T06:12:17;6.07;;;2.53;;
33254;SDS011;19623;52.482;9.762;2022-08-21T06:14:43;4.85;;;2.67;;
33254;SDS011;19623;52.482;9.762;2022-08-21T06:17:10;5.78;;;2.60;;
33254;SDS011;19623;52.482;9.762;2022-08-21T06:19:37;5.53;;;2.47;;
33254;SDS011;19623;52.482;9.762;2022-08-21T06:22:03;5.13;;;2.45;;
33254;SDS011;19623;52.482;9.762;2022-08-21T06:24:29;5.03;;;2.20;;
33254;SDS011;19623;52.482;9.762;2022-08-21T06:26:55;11.20;;;2.70;;
33254;SDS011;19623;52.482;9.762;2022-08-21T06:29:22;12.07;;;2.60;;
33254;SDS011;19623;52.482;9.762;2022-08-21T06:31:49;5.95;;;2.67;;
33254;SDS011;19623;52.482;9.762;2022-08-21T06:34:16;5.68;;;2.50;;
33254;SDS011;19623;52.482;9.762;2022-08-21T06:36:42;9.23;;;2.55;;
33254;SDS011;19623;52.482;9.762;2022-08-21T06:39:08;5.80;;;2.70;;
33254;SDS011;19623;52.482;9.762;2022-08-21T06:41:34;5.85;;;2.33;;
33254;SDS011;19623;52.482;9.762;2022-08-21T06:43:59;6.72;;;2.70;;
33254;SDS011;19623;52.482;9.762;2022-08-21T06:46:26;12.32;;;2.95;;
33254;SDS011;19623;52.482;9.762;2022-08-21T06:48:53;8.38;;;2.47;;
33254;SDS011;19623;52.482;9.762;2022-08-21T06:51:19;4.82;;;1.80;;
33254;SDS011;19623;52.482;9.762;2022-08-21T06:53:45;6.25;;;2.20;;
33254;SDS011;19623;52.482;9.762;2022-08-21T06:56:11;6.50;;;2.42;;
33254;SDS011;19623;52.482;9.762;2022-08-21T06:58:36;5.00;;;2.30;;
33254;SDS011;19623;52.482;9.762;2022-08-21T07:01:02;7.55;;;2.20;;
33254;SDS011;19623;52.482;9.762;2022-08-21T07:03:31;5.65;;;2.67;;
33254;SDS011;19623;52.482;9.762;2022-08-21T07:06:02;6.00;;;2.40;;
33254;SDS011;19623;52.482;9.762;2022-08-21T07:08:29;5.18;;;2.20;;
33254;SDS011;19623;52.482;9.762;2022-08-21T07:10:56;6.05;;;2.33;;
33254;SDS011;19623;52.482;9.762;2022-08-21T07:13:23;7.30;;;2.20;;
33254;SDS011;19623;52.482;9.762;2022-08-21T07:15:49;5.85;;;2.08;;
33254;SDS011;19623;52.482;9.762;2022-08-21T07:18:15;7.10;;;2.50;;
33254;SDS011;19623;52.482;9.762;2022-08-21T07:20:41;7.30;;;2.25;;
33254;SDS011;19623;52.482;9.762;2022-08-21T07:23:09;9.95;;;2.05;;
33254;SDS011;19623;52.482;9.762;2022-08-21T07:25:37;7.83;;;2.27;;
33254;SDS011;19623;52.482;9.762;2022-08-21T07:28:03;7.22;;;2.42;;
33254;SDS011;19623;52.482;9.762;2022-08-21T07:30:29;4.35;;;2.55;;
33254;SDS011;19623;52.482;9.762;2022-08-21T07:32:55;9.55;;;2.70;;
33254;SDS011;19623;52.482;9.762;2022-08-21T07:35:22;10.70;;;2.95;;
33254;SDS011;19623;52.482;9.762;2022-08-21T07:37:48;7.55;;;3.20;;
33254;SDS011;19623;52.482;9.762;2022-08-21T07:40:14;11.88;;;2.97;;
33254;SDS011;19623;52.482;9.762;2022-08-21T07:42:41;7.13;;;2.58;;
33254;SDS011;19623;52.482;9.762;2022-08-21T07:45:07;8.98;;;2.75;;
33254;SDS011;19623;52.482;9.762;2022-08-21T07:47:34;6.15;;;2.50;;
33254;SDS011;19623;52.482;9.762;2022-08-21T07:49:59;7.45;;;2.55;;
33254;SDS011;19623;52.482;9.762;2022-08-21T07:52:25;7.05;;;2.65;;
33254;SDS011;19623;52.482;9.762;2022-08-21T07:54:50;11.00;;;2.80;;
33254;SDS011;19623;52.482;9.762;2022-08-21T07:57:16;7.32;;;2.33;;
33254;SDS011;19623;52.482;9.762;2022-08-21T07:59:42;7.72;;;2.40;;
33254;SDS011;19623;52.482;9.762;2022-08-21T08:02:07;8.63;;;2.10;;
33254;SDS011;19623;52.482;9.762;2022-08-21T08:04:33;8.05;;;2.15;;
33254;SDS011;19623;52.482;9.762;2022-08-21T08:06:59;8.57;;;2.40;;
33254;SDS011;19623;52.482;9.762;2022-08-21T08:09:24;7.47;;;2.00;;
33254;SDS011;19623;52.482;9.762;2022-08-21T08:11:50;4.85;;;2.45;;
33254;SDS011;19623;52.482;9.762;2022-08-21T08:14:16;7.28;;;2.22;;
33254;SDS011;19623;52.482;9.762;2022-08-21T08:16:42;10.15;;;2.50;;
33254;SDS011;19623;52.482;9.762;2022-08-21T08:19:07;8.05;;;2.00;;
33254;SDS011;19623;52.482;9.762;2022-08-21T08:21:33;7.70;;;2.30;;
33254;SDS011;19623;52.482;9.762;2022-08-21T08:23:59;8.60;;;2.10;;
33254;SDS011;19623;52.482;9.762;2022-08-21T08:26:25;5.72;;;2.05;;
33254;SDS011;19623;52.482;9.762;2022-08-21T08:28:51;7.70;;;2.00;;
33254;SDS011;19623;52.482;9.762;2022-08-21T08:31:17;4.40;;;1.30;;
33254;SDS011;19623;52.482;9.762;2022-08-21T08:33:44;6.85;;;1.88;;
33254;SDS011;19623;52.482;9.762;2022-08-21T08:36:14;5.43;;;1.50;;
33254;SDS011;19623;52.482;9.762;2022-08-21T08:38:42;9.73;;;1.60;;
33254;SDS011;19623;52.482;9.762;2022-08-21T08:41:10;9.60;;;2.00;;
33254;SDS011;19623;52.482;9.762;2022-08-21T08:43:39;5.65;;;1.42;;
33254;SDS011;19623;52.482;9.762;2022-08-21T08:46:15;6.82;;;1.73;;
33254;SDS011;19623;52.482;9.762;2022-08-21T08:48:47;5.07;;;1.33;;
33254;SDS011;19623;52.482;9.762;2022-08-21T08:54:13;5.88;;;1.70;;
33254;SDS011;19623;52.482;9.762;2022-08-21T08:56:44;4.38;;;1.38;;
33254;SDS011;19623;52.482;9.762;2022-08-21T08:59:20;5.35;;;1.73;;
33254;SDS011;19623;52.482;9.762;2022-08-21T09:01:52;5.93;;;1.67;;
33254;SDS011;19623;52.482;9.762;2022-08-21T09:04:20;7.10;;;1.45;;
33254;SDS011;19623;52.482;9.762;2022-08-21T09:12:59;5.72;;;1.42;;
33254;SDS011;19623;52.482;9.762;2022-08-21T09:15:35;5.78;;;1.38;;
33254;SDS011;19623;52.482;9.762;2022-08-21T09:18:15;7.30;;;1.80;;
33254;SDS011;19623;52.482;9.762;2022-08-21T09:23:46;3.95;;;1.65;;
33254;SDS011;19623;52.482;9.762;2022-08-21T09:26:25;7.68;;;1.85;;
33254;SDS011;19623;52.482;9.762;2022-08-21T09:28:56;7.00;;;1.80;;
33254;SDS011;19623;52.482;9.762;2022-08-21T09:36:51;7.20;;;2.33;;
33254;SDS011;19623;52.482;9.762;2022-08-21T09:39:25;5.68;;;1.70;;
33254;SDS011;19623;52.482;9.762;2022-08-21T09:42:00;9.38;;;1.80;;
33254;SDS011;19623;52.482;9.762;2022-08-21T09:44:28;5.80;;;1.90;;
33254;SDS011;19623;52.482;9.762;2022-08-21T09:46:56;7.85;;;1.60;;
33254;SDS011;19623;52.482;9.762;2022-08-21T09:49:33;9.00;;;1.70;;
33254;SDS011;19623;52.482;9.762;2022-08-21T09:52:01;4.75;;;1.83;;
33254;SDS011;19623;52.482;9.762;2022-08-21T09:54:32;7.60;;;2.20;;
33254;SDS011;19623;52.482;9.762;2022-08-21T09:59:53;8.80;;;2.17;;
33254;SDS011;19623;52.482;9.762;2022-08-21T10:02:27;3.97;;;2.15;;
33254;SDS011;19623;52.482;9.762;2022-08-21T10:04:56;7.25;;;2.25;;
33254;SDS011;19623;52.482;9.762;2022-08-21T10:07:26;5.20;;;1.80;;
33254;SDS011;19623;52.482;9.762;2022-08-21T10:09:59;5.85;;;1.58;;
33254;SDS011;19623;52.482;9.762;2022-08-21T10:12:31;3.83;;;1.70;;
33254;SDS011;19623;52.482;9.762;2022-08-21T10:17:54;8.88;;;2.17;;
33254;SDS011;19623;52.482;9.762;2022-08-21T10:20:46;10.60;;;2.63;;
33254;SDS011;19623;52.482;9.762;2022-08-21T10:26:25;5.43;;;1.75;;
33254;SDS011;19623;52.482;9.762;2022-08-21T10:28:55;5.32;;;1.83;;
33254;SDS011;19623;52.482;9.762;2022-08-21T10:39:40;7.85;;;1.60;;
33254;SDS011;19623;52.482;9.762;2022-08-21T10:42:17;9.70;;;1.75;;
33254;SDS011;19623;52.482;9.762;2022-08-21T10:45:15;4.97;;;1.75;;
33254;SDS011;19623;52.482;9.762;2022-08-21T10:48:06;7.15;;;1.50;;
33254;SDS011;19623;52.482;9.762;2022-08-21T10:50:39;9.52;;;2.25;;
33254;SDS011;19623;52.482;9.762;2022-08-21T10:58:36;8.10;;;1.65;;
33254;SDS011;19623;52.482;9.762;2022-08-21T11:01:12;9.10;;;2.15;;
33254;SDS011;19623;52.482;9.762;2022-08-21T11:03:46;7.10;;;2.00;;
33254;SDS011;19623;52.482;9.762;2022-08-21T11:06:23;6.32;;;5.78;;
33254;SDS011;19623;52.482;9.762;2022-08-21T11:08:53;14.07;;;12.82;;
33254;SDS011;19623;52.482;9.762;2022-08-21T11:11:44;17.08;;;15.60;;
33254;SDS011;19623;52.482;9.762;2022-08-21T11:14:21;10.48;;;8.15;;
33254;SDS011;19623;52.482;9.762;2022-08-21T11:17:07;15.15;;;13.93;;
33254;SDS011;19623;52.482;9.762;2022-08-21T11:19:36;11.32;;;10.23;;
33254;SDS011;19623;52.482;9.762;2022-08-21T11:22:21;18.23;;;16.70;;
33254;SDS011;19623;52.482;9.762;2022-08-21T11:25:03;8.80;;;7.30;;
33254;SDS011;19623;52.482;9.762;2022-08-21T11:27:52;8.77;;;3.20;;
33254;SDS011;19623;52.482;9.762;2022-08-21T11:30:24;6.18;;;2.08;;
33254;SDS011;19623;52.482;9.762;2022-08-21T11:33:17;6.78;;;3.15;;
33254;SDS011;19623;52.482;9.762;2022-08-21T11:36:00;9.38;;;2.17;;
33254;SDS011;19623;52.482;9.762;2022-08-21T11:38:39;6.93;;;2.25;;
33254;SDS011;19623;52.482;9.762;2022-08-21T11:41:17;6.20;;;1.83;;
33254;SDS011;19623;52.482;9.762;2022-08-21T11:46:53;5.10;;;1.60;;
33254;SDS011;19623;52.482;9.762;2022-08-21T11:54:57;7.30;;;2.30;;
33254;SDS011;19623;52.482;9.762;2022-08-21T11:57:32;4.47;;;1.70;;
33254;SDS011;19623;52.482;9.762;2022-08-21T12:04:00;5.68;;;1.85;;
33254;SDS011;19623;52.482;9.762;2022-08-21T12:05:58;8.57;;;2.00;;
33254;SDS011;19623;52.482;9.762;2022-08-21T12:13:27;8.20;;;2.20;;
33254;SDS011;19623;52.482;9.762;2022-08-21T12:16:07;6.03;;;2.10;;
33254;SDS011;19623;52.482;9.762;2022-08-21T12:18:34;6.57;;;2.33;;
33254;SDS011;19623;52.482;9.762;2022-08-21T12:23:32;9.68;;;1.88;;
33254;SDS011;19623;52.482;9.762;2022-08-21T12:28:46;7.35;;;2.03;;
33254;SDS011;19623;52.482;9.762;2022-08-21T12:31:20;4.50;;;1.95;;
33254;SDS011;19623;52.482;9.762;2022-08-21T12:33:54;6.47;;;1.52;;
33254;SDS011;19623;52.482;9.762;2022-08-21T12:36:34;5.32;;;1.83;;
33254;SDS011;19623;52.482;9.762;2022-08-21T12:39:11;7.07;;;1.90;;
33254;SDS011;19623;52.482;9.762;2022-08-21T12:41:56;5.55;;;1.55;;
33254;SDS011;19623;52.482;9.762;2022-08-21T12:44:37;4.85;;;1.40;;
33254;SDS011;19623;52.482;9.762;2022-08-21T12:47:15;6.85;;;1.80;;
33254;SDS011;19623;52.482;9.762;2022-08-21T12:50:09;5.13;;;1.70;;
33254;SDS011;19623;52.482;9.762;2022-08-21T12:52:41;6.95;;;1.60;;
33254;SDS011;19623;52.482;9.762;2022-08-21T12:55:13;7.65;;;2.00;;
33254;SDS011;19623;52.482;9.762;2022-08-21T12:57:41;8.00;;;1.75;;
33254;SDS011;19623;52.482;9.762;2022-08-21T13:00:08;7.72;;;1.88;;
33254;SDS011;19623;52.482;9.762;2022-08-21T13:02:38;6.18;;;1.70;;
33254;SDS011;19623;52.482;9.762;2022-08-21T13:05:12;6.38;;;1.85;;
33254;SDS011;19623;52.482;9.762;2022-08-21T13:07:42;4.43;;;1.60;;
33254;SDS011;19623;52.482;9.762;2022-08-21T13:10:19;6.63;;;2.30;;
33254;SDS011;19623;52.482;9.762;2022-08-21T13:12:47;9.07;;;1.90;;
33254;SDS011;19623;52.482;9.762;2022-08-21T13:15:13;5.03;;;1.80;;
33254;SDS011;19623;52.482;9.762;2022-08-21T13:17:41;5.20;;;2.13;;
33254;SDS011;19623;52.482;9.762;2022-08-21T13:20:22;5.50;;;1.75;;
33254;SDS011;19623;52.482;9.762;2022-08-21T13:22:50;4.43;;;1.77;;
33254;SDS011;19623;52.482;9.762;2022-08-21T13:25:17;3.35;;;1.30;;
33254;SDS011;19623;52.482;9.762;2022-08-21T13:27:55;4.60;;;1.67;;
33254;SDS011;19623;52.482;9.762;2022-08-21T13:30:27;4.90;;;1.77;;
33254;SDS011;19623;52.482;9.762;2022-08-21T13:32:57;8.35;;;1.60;;
33254;SDS011;19623;52.482;9.762;2022-08-21T13:36:14;4.63;;;1.92;;
33254;SDS011;19623;52.482;9.762;2022-08-21T13:38:15;4.00;;;1.70;;
33254;SDS011;19623;52.482;9.762;2022-08-21T13:40:53;3.92;;;1.60;;
33254;SDS011;19623;52.482;9.762;2022-08-21T13:43:28;3.63;;;1.50;;
33254;SDS011;19623;52.482;9.762;2022-08-21T13:45:57;7.78;;;1.85;;
33254;SDS011;19623;52.482;9.762;2022-08-21T13:48:25;3.05;;;1.50;;
33254;SDS011;19623;52.482;9.762;2022-08-21T13:50:54;5.93;;;1.70;;
33254;SDS011;19623;52.482;9.762;2022-08-21T13:53:44;4.80;;;1.52;;
33254;SDS011;19623;52.482;9.762;2022-08-21T13:56:28;4.20;;;1.73;;
33254;SDS011;19623;52.482;9.762;2022-08-21T13:58:58;5.43;;;1.92;;
33254;SDS011;19623;52.482;9.762;2022-08-21T14:01:30;3.45;;;1.50;;
33254;SDS011;19623;52.482;9.762;2022-08-21T14:04:03;4.35;;;1.67;;
33254;SDS011;19623;52.482;9.762;2022-08-21T14:06:33;5.00;;;1.80;;
33254;SDS011;19623;52.482;9.762;2022-08-21T14:09:11;3.08;;;1.48;;
33254;SDS011;19623;52.482;9.762;2022-08-21T14:11:50;3.75;;;1.50;;
33254;SDS011;19623;52.482;9.762;2022-08-21T14:14:22;4.82;;;1.58;;
33254;SDS011;19623;52.482;9.762;2022-08-21T14:17:00;7.78;;;1.85;;
33254;SDS011;19623;52.482;9.762;2022-08-21T14:19:44;4.25;;;1.75;;
33254;SDS011;19623;52.482;9.762;2022-08-21T14:27:32;2.78;;;1.33;;
33254;SDS011;19623;52.482;9.762;2022-08-21T14:30:02;6.47;;;1.90;;
33254;SDS011;19623;52.482;9.762;2022-08-21T14:32:42;6.00;;;1.60;;
33254;SDS011;19623;52.482;9.762;2022-08-21T14:35:09;6.30;;;1.60;;
33254;SDS011;19623;52.482;9.762;2022-08-21T14:37:35;3.22;;;1.50;;
33254;SDS011;19623;52.482;9.762;2022-08-21T14:40:01;5.55;;;1.52;;
33254;SDS011;19623;52.482;9.762;2022-08-21T14:42:28;5.97;;;1.95;;
33254;SDS011;19623;52.482;9.762;2022-08-21T14:44:54;8.23;;;2.00;;
33254;SDS011;19623;52.482;9.762;2022-08-21T14:49:50;5.50;;;1.83;;
33254;SDS011;19623;52.482;9.762;2022-08-21T14:52:18;3.55;;;1.63;;
33254;SDS011;19623;52.482;9.762;2022-08-21T14:54:44;3.92;;;1.58;;
33254;SDS011;19623;52.482;9.762;2022-08-21T14:57:10;3.40;;;1.52;;
33254;SDS011;19623;52.482;9.762;2022-08-21T14:59:37;6.68;;;2.25;;
33254;SDS011;19623;52.482;9.762;2022-08-21T15:02:03;4.18;;;1.80;;
33254;SDS011;19623;52.482;9.762;2022-08-21T15:04:30;7.03;;;2.00;;
33254;SDS011;19623;52.482;9.762;2022-08-21T15:06:55;5.85;;;2.28;;
33254;SDS011;19623;52.482;9.762;2022-08-21T15:09:21;6.93;;;1.90;;
33254;SDS011;19623;52.482;9.762;2022-08-21T15:11:48;4.68;;;1.52;;
33254;SDS011;19623;52.482;9.762;2022-08-21T15:14:19;5.07;;;1.60;;
33254;SDS011;19623;52.482;9.762;2022-08-21T15:16:47;6.90;;;1.98;;
33254;SDS011;19623;52.482;9.762;2022-08-21T15:19:13;6.82;;;1.90;;
33254;SDS011;19623;52.482;9.762;2022-08-21T15:21:39;5.88;;;2.08;;
33254;SDS011;19623;52.482;9.762;2022-08-21T15:24:05;4.50;;;2.00;;
33254;SDS011;19623;52.482;9.762;2022-08-21T15:26:30;4.47;;;1.90;;
33254;SDS011;19623;52.482;9.762;2022-08-21T15:28:56;6.10;;;1.70;;
33254;SDS011;19623;52.482;9.762;2022-08-21T15:31:22;5.68;;;1.98;;
33254;SDS011;19623;52.482;9.762;2022-08-21T15:33:47;5.43;;;2.00;;
33254;SDS011;19623;52.482;9.762;2022-08-21T15:36:13;5.95;;;1.85;;
33254;SDS011;19623;52.482;9.762;2022-08-21T15:38:39;6.45;;;2.15;;
33254;SDS011;19623;52.482;9.762;2022-08-21T15:41:05;6.10;;;1.80;;
33254;SDS011;19623;52.482;9.762;2022-08-21T15:43:40;5.30;;;1.77;;
33254;SDS011;19623;52.482;9.762;2022-08-21T15:46:17;4.03;;;1.52;;
33254;SDS011;19623;52.482;9.762;2022-08-21T15:48:44;7.10;;;1.70;;
33254;SDS011;19623;52.482;9.762;2022-08-21T15:51:11;5.03;;;1.85;;
33254;SDS011;19623;52.482;9.762;2022-08-21T15:53:38;3.25;;;1.70;;
33254;SDS011;19623;52.482;9.762;2022-08-21T15:56:06;4.55;;;1.85;;
33254;SDS011;19623;52.482;9.762;2022-08-21T15:58:39;7.15;;;2.15;;
33254;SDS011;19623;52.482;9.762;2022-08-21T16:01:05;5.85;;;1.80;;
33254;SDS011;19623;52.482;9.762;2022-08-21T16:03:30;5.38;;;2.00;;
33254;SDS011;19623;52.482;9.762;2022-08-21T16:05:57;3.58;;;1.70;;
33254;SDS011;19623;52.482;9.762;2022-08-21T16:08:23;5.03;;;1.88;;
33254;SDS011;19623;52.482;9.762;2022-08-21T16:10:50;4.22;;;1.38;;
33254;SDS011;19623;52.482;9.762;2022-08-21T16:13:27;7.22;;;2.15;;
33254;SDS011;19623;52.482;9.762;2022-08-21T16:16:01;4.55;;;1.80;;